sensor_id;sensor_type;location;lat;lon;timestamp;temperature;humidity
51559;DHT22;61650;48.882;2.092;2022-07-23T00:01:27;18.30;92.40
51559;DHT22;61650;48.882;2.092;2022-07-23T00:03:54;18.30;92.50
51559;DHT22;61650;48.882;2.092;2022-07-23T00:06:20;18.30;92.40
51559;DHT22;61650;48.882;2.092;2022-07-23T00:08:46;18.30;92.20
51559;DHT22;61650;48.882;2.092;2022-07-23T00:11:12;18.30;92.30
51559;DHT22;61650;48.882;2.092;2022-07-23T00:13:38;18.30;92.30
51559;DHT22;61650;48.882;2.092;2022-07-23T00:16:04;18.30;92.30
51559;DHT22;61650;48.882;2.092;2022-07-23T00:18:30;18.30;91.90
51559;DHT22;61650;48.882;2.092;2022-07-23T00:20:56;18.20;92.00
51559;DHT22;61650;48.882;2.092;2022-07-23T00:23:21;18.20;92.20
51559;DHT22;61650;48.882;2.092;2022-07-23T00:25:47;18.20;92.20
51559;DHT22;61650;48.882;2.092;2022-07-23T00:28:13;18.20;92.40
51559;DHT22;61650;48.882;2.092;2022-07-23T00:30:38;18.20;92.60
51559;DHT22;61650;48.882;2.092;2022-07-23T00:33:06;18.20;92.60
51559;DHT22;61650;48.882;2.092;2022-07-23T00:35:37;18.30;92.50
51559;DHT22;61650;48.882;2.092;2022-07-23T00:38:06;18.20;92.40
51559;DHT22;61650;48.882;2.092;2022-07-23T00:40:32;18.30;92.80
51559;DHT22;61650;48.882;2.092;2022-07-23T00:42:58;18.30;92.80
51559;DHT22;61650;48.882;2.092;2022-07-23T00:45:24;18.30;92.90
51559;DHT22;61650;48.882;2.092;2022-07-23T00:47:50;18.40;92.80
51559;DHT22;61650;48.882;2.092;2022-07-23T00:50:17;18.30;92.80
51559;DHT22;61650;48.882;2.092;2022-07-23T00:52:43;18.40;93.00
51559;DHT22;61650;48.882;2.092;2022-07-23T00:55:09;18.40;92.80
51559;DHT22;61650;48.882;2.092;2022-07-23T00:57:36;18.30;92.60
51559;DHT22;61650;48.882;2.092;2022-07-23T01:00:04;18.30;92.40
51559;DHT22;61650;48.882;2.092;2022-07-23T01:02:30;18.30;92.50
51559;DHT22;61650;48.882;2.092;2022-07-23T01:04:56;18.30;92.70
51559;DHT22;61650;48.882;2.092;2022-07-23T01:07:22;18.30;92.80
51559;DHT22;61650;48.882;2.092;2022-07-23T01:09:48;18.40;92.90
51559;DHT22;61650;48.882;2.092;2022-07-23T01:12:14;18.30;92.50
51559;DHT22;61650;48.882;2.092;2022-07-23T01:14:40;18.30;92.70
51559;DHT22;61650;48.882;2.092;2022-07-23T01:17:05;18.30;92.70
51559;DHT22;61650;48.882;2.092;2022-07-23T01:19:31;18.30;92.40
51559;DHT22;61650;48.882;2.092;2022-07-23T01:21:58;18.30;92.40
51559;DHT22;61650;48.882;2.092;2022-07-23T01:24:26;18.20;92.40
51559;DHT22;61650;48.882;2.092;2022-07-23T01:26:51;18.20;92.30
51559;DHT22;61650;48.882;2.092;2022-07-23T01:29:17;18.20;92.40
51559;DHT22;61650;48.882;2.092;2022-07-23T01:31:43;18.20;92.40
51559;DHT22;61650;48.882;2.092;2022-07-23T01:34:09;18.20;92.40
51559;DHT22;61650;48.882;2.092;2022-07-23T01:36:36;18.20;92.20
51559;DHT22;61650;48.882;2.092;2022-07-23T01:39:03;18.20;92.50
51559;DHT22;61650;48.882;2.092;2022-07-23T01:41:29;18.20;92.70
51559;DHT22;61650;48.882;2.092;2022-07-23T01:43:55;18.30;92.90
51559;DHT22;61650;48.882;2.092;2022-07-23T01:46:20;18.20;92.50
51559;DHT22;61650;48.882;2.092;2022-07-23T01:48:46;18.20;92.60
51559;DHT22;61650;48.882;2.092;2022-07-23T01:51:12;18.20;92.60
51559;DHT22;61650;48.882;2.092;2022-07-23T01:53:37;18.20;92.60
51559;DHT22;61650;48.882;2.092;2022-07-23T01:56:03;18.20;92.80
51559;DHT22;61650;48.882;2.092;2022-07-23T01:58:29;18.30;93.00
51559;DHT22;61650;48.882;2.092;2022-07-23T02:00:55;18.30;93.20
51559;DHT22;61650;48.882;2.092;2022-07-23T02:03:21;18.30;92.80
51559;DHT22;61650;48.882;2.092;2022-07-23T02:05:47;18.20;92.40
51559;DHT22;61650;48.882;2.092;2022-07-23T02:08:13;18.20;92.60
51559;DHT22;61650;48.882;2.092;2022-07-23T02:10:38;18.20;92.80
51559;DHT22;61650;48.882;2.092;2022-07-23T02:13:04;18.20;93.00
51559;DHT22;61650;48.882;2.092;2022-07-23T02:15:29;18.20;93.00
51559;DHT22;61650;48.882;2.092;2022-07-23T02:17:55;18.20;92.70
51559;DHT22;61650;48.882;2.092;2022-07-23T02:20:21;18.30;92.80
51559;DHT22;61650;48.882;2.092;2022-07-23T02:22:47;18.30;92.80
51559;DHT22;61650;48.882;2.092;2022-07-23T02:25:13;18.30;92.80
51559;DHT22;61650;48.882;2.092;2022-07-23T02:27:39;18.30;93.00
51559;DHT22;61650;48.882;2.092;2022-07-23T02:30:05;18.30;92.80
51559;DHT22;61650;48.882;2.092;2022-07-23T02:32:31;18.30;92.90
51559;DHT22;61650;48.882;2.092;2022-07-23T02:34:57;18.30;93.00
51559;DHT22;61650;48.882;2.092;2022-07-23T02:37:22;18.30;93.00
51559;DHT22;61650;48.882;2.092;2022-07-23T02:39:48;18.30;92.90
51559;DHT22;61650;48.882;2.092;2022-07-23T02:42:14;18.40;93.10
51559;DHT22;61650;48.882;2.092;2022-07-23T02:44:40;18.40;92.90
51559;DHT22;61650;48.882;2.092;2022-07-23T02:47:06;18.30;92.80
51559;DHT22;61650;48.882;2.092;2022-07-23T02:49:31;18.30;93.00
51559;DHT22;61650;48.882;2.092;2022-07-23T02:51:57;18.30;93.00
51559;DHT22;61650;48.882;2.092;2022-07-23T02:54:22;18.40;93.00
51559;DHT22;61650;48.882;2.092;2022-07-23T02:56:48;18.40;93.10
51559;DHT22;61650;48.882;2.092;2022-07-23T02:59:16;18.40;93.20
51559;DHT22;61650;48.882;2.092;2022-07-23T03:01:41;18.40;93.00
51559;DHT22;61650;48.882;2.092;2022-07-23T03:04:07;18.40;93.00
51559;DHT22;61650;48.882;2.092;2022-07-23T03:06:33;18.40;93.00
51559;DHT22;61650;48.882;2.092;2022-07-23T03:08:59;18.40;93.00
51559;DHT22;61650;48.882;2.092;2022-07-23T03:11:24;18.50;93.00
51559;DHT22;61650;48.882;2.092;2022-07-23T03:13:50;18.50;92.30
51559;DHT22;61650;48.882;2.092;2022-07-23T03:16:15;18.40;91.30
51559;DHT22;61650;48.882;2.092;2022-07-23T03:18:41;18.40;91.30
51559;DHT22;61650;48.882;2.092;2022-07-23T03:21:07;18.40;91.70
51559;DHT22;61650;48.882;2.092;2022-07-23T03:23:33;18.40;91.90
51559;DHT22;61650;48.882;2.092;2022-07-23T03:25:58;18.40;92.20
51559;DHT22;61650;48.882;2.092;2022-07-23T03:28:24;18.30;92.30
51559;DHT22;61650;48.882;2.092;2022-07-23T03:30:49;18.30;92.20
51559;DHT22;61650;48.882;2.092;2022-07-23T03:33:17;18.30;91.20
51559;DHT22;61650;48.882;2.092;2022-07-23T03:35:43;18.30;90.60
51559;DHT22;61650;48.882;2.092;2022-07-23T03:38:09;18.40;91.40
51559;DHT22;61650;48.882;2.092;2022-07-23T03:40:35;18.30;91.40
51559;DHT22;61650;48.882;2.092;2022-07-23T03:43:00;18.30;91.50
51559;DHT22;61650;48.882;2.092;2022-07-23T03:45:27;18.20;89.90
51559;DHT22;61650;48.882;2.092;2022-07-23T03:47:52;18.10;90.40
51559;DHT22;61650;48.882;2.092;2022-07-23T03:50:18;18.00;90.50
51559;DHT22;61650;48.882;2.092;2022-07-23T03:52:44;18.00;90.60
51559;DHT22;61650;48.882;2.092;2022-07-23T03:55:09;17.90;91.10
51559;DHT22;61650;48.882;2.092;2022-07-23T03:57:35;17.80;91.60
51559;DHT22;61650;48.882;2.092;2022-07-23T04:00:03;17.80;91.80
51559;DHT22;61650;48.882;2.092;2022-07-23T04:02:28;17.80;91.90
51559;DHT22;61650;48.882;2.092;2022-07-23T04:04:54;17.70;92.20
51559;DHT22;61650;48.882;2.092;2022-07-23T04:07:20;17.70;92.30
51559;DHT22;61650;48.882;2.092;2022-07-23T04:09:46;17.60;92.20
51559;DHT22;61650;48.882;2.092;2022-07-23T04:12:12;17.70;92.40
51559;DHT22;61650;48.882;2.092;2022-07-23T04:14:38;17.70;92.60
51559;DHT22;61650;48.882;2.092;2022-07-23T04:17:03;17.70;92.40
51559;DHT22;61650;48.882;2.092;2022-07-23T04:19:29;17.70;92.10
51559;DHT22;61650;48.882;2.092;2022-07-23T04:21:56;17.70;92.40
51559;DHT22;61650;48.882;2.092;2022-07-23T04:24:21;17.70;92.20
51559;DHT22;61650;48.882;2.092;2022-07-23T04:26:47;17.70;92.20
51559;DHT22;61650;48.882;2.092;2022-07-23T04:29:12;17.70;92.30
51559;DHT22;61650;48.882;2.092;2022-07-23T04:31:38;17.70;92.30
51559;DHT22;61650;48.882;2.092;2022-07-23T04:34:04;17.70;92.50
51559;DHT22;61650;48.882;2.092;2022-07-23T04:36:29;17.70;92.70
51559;DHT22;61650;48.882;2.092;2022-07-23T04:38:55;17.80;92.70
51559;DHT22;61650;48.882;2.092;2022-07-23T04:41:20;17.80;92.30
51559;DHT22;61650;48.882;2.092;2022-07-23T04:43:46;17.80;91.60
51559;DHT22;61650;48.882;2.092;2022-07-23T04:46:12;17.80;91.00
51559;DHT22;61650;48.882;2.092;2022-07-23T04:48:38;17.80;90.80
51559;DHT22;61650;48.882;2.092;2022-07-23T04:51:04;17.80;91.60
51559;DHT22;61650;48.882;2.092;2022-07-23T04:53:29;17.70;92.00
51559;DHT22;61650;48.882;2.092;2022-07-23T04:55:55;17.80;92.20
51559;DHT22;61650;48.882;2.092;2022-07-23T04:58:21;17.80;92.10
51559;DHT22;61650;48.882;2.092;2022-07-23T05:00:46;17.80;92.30
51559;DHT22;61650;48.882;2.092;2022-07-23T05:03:12;17.80;92.60
51559;DHT22;61650;48.882;2.092;2022-07-23T05:05:38;17.80;92.60
51559;DHT22;61650;48.882;2.092;2022-07-23T05:08:04;17.80;92.70
51559;DHT22;61650;48.882;2.092;2022-07-23T05:10:30;17.90;93.00
51559;DHT22;61650;48.882;2.092;2022-07-23T05:12:55;18.00;93.00
51559;DHT22;61650;48.882;2.092;2022-07-23T05:15:21;18.00;92.60
51559;DHT22;61650;48.882;2.092;2022-07-23T05:17:46;18.00;92.70
51559;DHT22;61650;48.882;2.092;2022-07-23T05:20:13;18.00;92.10
51559;DHT22;61650;48.882;2.092;2022-07-23T05:22:39;18.10;92.40
51559;DHT22;61650;48.882;2.092;2022-07-23T05:25:05;18.10;91.80
51559;DHT22;61650;48.882;2.092;2022-07-23T05:27:31;18.10;91.10
51559;DHT22;61650;48.882;2.092;2022-07-23T05:29:57;18.20;91.40
51559;DHT22;61650;48.882;2.092;2022-07-23T05:32:23;18.20;91.80
51559;DHT22;61650;48.882;2.092;2022-07-23T05:34:49;18.20;91.00
51559;DHT22;61650;48.882;2.092;2022-07-23T05:37:15;18.20;90.70
51559;DHT22;61650;48.882;2.092;2022-07-23T05:39:40;18.20;90.90
51559;DHT22;61650;48.882;2.092;2022-07-23T05:42:06;18.30;90.50
51559;DHT22;61650;48.882;2.092;2022-07-23T05:44:31;18.30;91.00
51559;DHT22;61650;48.882;2.092;2022-07-23T05:46:57;18.30;91.00
51559;DHT22;61650;48.882;2.092;2022-07-23T05:49:23;18.30;91.10
51559;DHT22;61650;48.882;2.092;2022-07-23T05:51:48;18.30;90.50
51559;DHT22;61650;48.882;2.092;2022-07-23T05:54:14;18.30;90.70
51559;DHT22;61650;48.882;2.092;2022-07-23T05:56:39;18.30;90.20
51559;DHT22;61650;48.882;2.092;2022-07-23T05:59:05;18.30;90.40
51559;DHT22;61650;48.882;2.092;2022-07-23T06:01:31;18.30;90.20
51559;DHT22;61650;48.882;2.092;2022-07-23T06:03:57;18.40;90.40
51559;DHT22;61650;48.882;2.092;2022-07-23T06:06:22;18.40;90.20
51559;DHT22;61650;48.882;2.092;2022-07-23T06:08:48;18.50;89.70
51559;DHT22;61650;48.882;2.092;2022-07-23T06:11:13;18.50;90.40
51559;DHT22;61650;48.882;2.092;2022-07-23T06:13:39;18.50;89.20
51559;DHT22;61650;48.882;2.092;2022-07-23T06:16:04;18.50;89.20
51559;DHT22;61650;48.882;2.092;2022-07-23T06:18:30;18.40;88.70
51559;DHT22;61650;48.882;2.092;2022-07-23T06:20:56;18.40;89.30
51559;DHT22;61650;48.882;2.092;2022-07-23T06:23:21;18.40;90.10
51559;DHT22;61650;48.882;2.092;2022-07-23T06:25:47;18.50;90.40
51559;DHT22;61650;48.882;2.092;2022-07-23T06:28:12;18.50;89.30
51559;DHT22;61650;48.882;2.092;2022-07-23T06:30:38;18.40;88.40
51559;DHT22;61650;48.882;2.092;2022-07-23T06:33:04;18.40;89.20
51559;DHT22;61650;48.882;2.092;2022-07-23T06:35:29;18.50;90.00
51559;DHT22;61650;48.882;2.092;2022-07-23T06:37:55;18.50;89.40
51559;DHT22;61650;48.882;2.092;2022-07-23T06:40:20;18.50;88.90
51559;DHT22;61650;48.882;2.092;2022-07-23T06:42:46;18.50;88.80
51559;DHT22;61650;48.882;2.092;2022-07-23T06:45:12;18.50;89.30
51559;DHT22;61650;48.882;2.092;2022-07-23T06:47:37;18.50;89.50
51559;DHT22;61650;48.882;2.092;2022-07-23T06:50:04;18.50;88.00
51559;DHT22;61650;48.882;2.092;2022-07-23T06:52:30;18.50;88.90
51559;DHT22;61650;48.882;2.092;2022-07-23T06:54:56;18.50;90.00
51559;DHT22;61650;48.882;2.092;2022-07-23T06:57:21;18.50;89.30
51559;DHT22;61650;48.882;2.092;2022-07-23T06:59:47;18.50;89.60
51559;DHT22;61650;48.882;2.092;2022-07-23T07:02:12;18.40;87.70
51559;DHT22;61650;48.882;2.092;2022-07-23T07:04:38;18.40;89.80
51559;DHT22;61650;48.882;2.092;2022-07-23T07:07:04;18.40;90.10
51559;DHT22;61650;48.882;2.092;2022-07-23T07:09:29;18.40;89.30
51559;DHT22;61650;48.882;2.092;2022-07-23T07:11:55;18.30;88.10
51559;DHT22;61650;48.882;2.092;2022-07-23T07:14:23;18.30;88.20
51559;DHT22;61650;48.882;2.092;2022-07-23T07:16:48;18.40;89.00
51559;DHT22;61650;48.882;2.092;2022-07-23T07:19:14;18.40;89.20
51559;DHT22;61650;48.882;2.092;2022-07-23T07:21:39;18.40;88.70
51559;DHT22;61650;48.882;2.092;2022-07-23T07:24:05;18.50;87.60
51559;DHT22;61650;48.882;2.092;2022-07-23T07:26:32;18.40;86.60
51559;DHT22;61650;48.882;2.092;2022-07-23T07:28:57;18.40;86.40
51559;DHT22;61650;48.882;2.092;2022-07-23T07:31:23;18.40;88.10
51559;DHT22;61650;48.882;2.092;2022-07-23T07:33:48;18.50;88.10
51559;DHT22;61650;48.882;2.092;2022-07-23T07:36:14;18.50;87.00
51559;DHT22;61650;48.882;2.092;2022-07-23T07:38:40;18.60;89.20
51559;DHT22;61650;48.882;2.092;2022-07-23T07:41:05;18.70;88.90
51559;DHT22;61650;48.882;2.092;2022-07-23T07:43:31;18.80;89.20
51559;DHT22;61650;48.882;2.092;2022-07-23T07:45:56;18.90;88.00
51559;DHT22;61650;48.882;2.092;2022-07-23T07:48:22;18.90;87.20
51559;DHT22;61650;48.882;2.092;2022-07-23T07:50:48;18.90;86.30
51559;DHT22;61650;48.882;2.092;2022-07-23T07:53:13;18.90;86.70
51559;DHT22;61650;48.882;2.092;2022-07-23T07:55:39;18.90;88.00
51559;DHT22;61650;48.882;2.092;2022-07-23T07:58:05;18.90;88.80
51559;DHT22;61650;48.882;2.092;2022-07-23T08:00:30;19.00;88.60
51559;DHT22;61650;48.882;2.092;2022-07-23T08:02:56;18.90;87.60
51559;DHT22;61650;48.882;2.092;2022-07-23T08:05:24;18.90;88.00
51559;DHT22;61650;48.882;2.092;2022-07-23T08:07:49;18.90;86.60
51559;DHT22;61650;48.882;2.092;2022-07-23T08:10:15;18.90;86.70
51559;DHT22;61650;48.882;2.092;2022-07-23T08:12:50;18.90;85.20
51559;DHT22;61650;48.882;2.092;2022-07-23T08:15:17;18.90;86.10
51559;DHT22;61650;48.882;2.092;2022-07-23T08:17:44;18.90;86.90
51559;DHT22;61650;48.882;2.092;2022-07-23T08:20:12;19.00;86.10
51559;DHT22;61650;48.882;2.092;2022-07-23T08:25:25;18.80;85.50
51559;DHT22;61650;48.882;2.092;2022-07-23T08:27:51;18.90;85.30
51559;DHT22;61650;48.882;2.092;2022-07-23T08:30:18;19.00;86.30
51559;DHT22;61650;48.882;2.092;2022-07-23T08:32:55;19.10;84.30
51559;DHT22;61650;48.882;2.092;2022-07-23T08:35:27;19.00;85.10
51559;DHT22;61650;48.882;2.092;2022-07-23T08:37:54;19.00;83.60
51559;DHT22;61650;48.882;2.092;2022-07-23T08:40:20;19.10;85.30
51559;DHT22;61650;48.882;2.092;2022-07-23T08:42:50;19.00;85.10
51559;DHT22;61650;48.882;2.092;2022-07-23T08:45:18;19.00;84.10
51559;DHT22;61650;48.882;2.092;2022-07-23T08:47:44;19.00;85.50
51559;DHT22;61650;48.882;2.092;2022-07-23T08:50:10;19.00;85.90
51559;DHT22;61650;48.882;2.092;2022-07-23T08:52:37;19.10;84.50
51559;DHT22;61650;48.882;2.092;2022-07-23T08:55:04;19.00;83.60
51559;DHT22;61650;48.882;2.092;2022-07-23T08:57:30;19.10;84.80
51559;DHT22;61650;48.882;2.092;2022-07-23T08:59:56;19.10;85.10
51559;DHT22;61650;48.882;2.092;2022-07-23T09:02:22;19.20;83.20
51559;DHT22;61650;48.882;2.092;2022-07-23T09:04:48;19.20;84.60
51559;DHT22;61650;48.882;2.092;2022-07-23T09:07:13;19.30;84.80
51559;DHT22;61650;48.882;2.092;2022-07-23T09:09:39;19.30;84.80
51559;DHT22;61650;48.882;2.092;2022-07-23T09:12:07;19.20;84.30
51559;DHT22;61650;48.882;2.092;2022-07-23T09:14:38;19.20;84.30
51559;DHT22;61650;48.882;2.092;2022-07-23T09:17:10;19.30;84.70
51559;DHT22;61650;48.882;2.092;2022-07-23T09:19:36;19.20;84.90
51559;DHT22;61650;48.882;2.092;2022-07-23T09:22:22;19.20;84.40
51559;DHT22;61650;48.882;2.092;2022-07-23T09:25:10;19.20;85.10
51559;DHT22;61650;48.882;2.092;2022-07-23T09:28:05;19.30;85.20
51559;DHT22;61650;48.882;2.092;2022-07-23T09:30:33;19.30;85.40
51559;DHT22;61650;48.882;2.092;2022-07-23T09:33:15;19.40;85.20
51559;DHT22;61650;48.882;2.092;2022-07-23T09:38:09;19.50;83.50
51559;DHT22;61650;48.882;2.092;2022-07-23T09:40:34;19.40;82.20
51559;DHT22;61650;48.882;2.092;2022-07-23T09:43:00;19.40;83.50
51559;DHT22;61650;48.882;2.092;2022-07-23T09:45:25;19.50;82.80
51559;DHT22;61650;48.882;2.092;2022-07-23T09:48:10;19.50;83.80
51559;DHT22;61650;48.882;2.092;2022-07-23T09:50:36;19.60;83.90
51559;DHT22;61650;48.882;2.092;2022-07-23T09:53:02;19.60;83.90
51559;DHT22;61650;48.882;2.092;2022-07-23T09:55:32;19.50;83.50
51559;DHT22;61650;48.882;2.092;2022-07-23T09:58:03;19.70;83.60
51559;DHT22;61650;48.882;2.092;2022-07-23T10:00:30;19.70;82.60
51559;DHT22;61650;48.882;2.092;2022-07-23T10:02:57;19.80;82.70
51559;DHT22;61650;48.882;2.092;2022-07-23T10:05:24;19.90;82.50
51559;DHT22;61650;48.882;2.092;2022-07-23T10:07:51;20.00;82.30
51559;DHT22;61650;48.882;2.092;2022-07-23T10:10:17;20.00;81.80
51559;DHT22;61650;48.882;2.092;2022-07-23T10:12:46;20.00;82.20
51559;DHT22;61650;48.882;2.092;2022-07-23T10:15:12;20.00;79.40
51559;DHT22;61650;48.882;2.092;2022-07-23T10:17:39;20.10;81.00
51559;DHT22;61650;48.882;2.092;2022-07-23T10:20:05;20.10;80.10
51559;DHT22;61650;48.882;2.092;2022-07-23T10:22:35;20.20;80.10
51559;DHT22;61650;48.882;2.092;2022-07-23T10:25:14;20.40;81.00
51559;DHT22;61650;48.882;2.092;2022-07-23T10:33:23;20.60;81.50
51559;DHT22;61650;48.882;2.092;2022-07-23T10:36:21;20.60;79.00
51559;DHT22;61650;48.882;2.092;2022-07-23T10:39:36;20.70;78.80
51559;DHT22;61650;48.882;2.092;2022-07-23T10:41:39;20.70;80.40
51559;DHT22;61650;48.882;2.092;2022-07-23T10:44:07;20.80;75.20
51559;DHT22;61650;48.882;2.092;2022-07-23T10:46:32;20.80;77.50
51559;DHT22;61650;48.882;2.092;2022-07-23T10:49:25;20.90;79.00
51559;DHT22;61650;48.882;2.092;2022-07-23T10:57:29;20.80;78.40
51559;DHT22;61650;48.882;2.092;2022-07-23T11:02:40;20.80;75.60
51559;DHT22;61650;48.882;2.092;2022-07-23T11:05:12;20.70;77.60
51559;DHT22;61650;48.882;2.092;2022-07-23T11:10:48;20.60;77.90
51559;DHT22;61650;48.882;2.092;2022-07-23T11:13:28;20.60;78.00
51559;DHT22;61650;48.882;2.092;2022-07-23T11:32:17;20.70;74.90
51559;DHT22;61650;48.882;2.092;2022-07-23T11:34:48;20.70;75.50
51559;DHT22;61650;48.882;2.092;2022-07-23T11:37:35;20.70;77.20
51559;DHT22;61650;48.882;2.092;2022-07-23T11:40:04;20.70;75.80
51559;DHT22;61650;48.882;2.092;2022-07-23T11:42:31;20.70;74.90
51559;DHT22;61650;48.882;2.092;2022-07-23T11:44:57;20.80;76.60
51559;DHT22;61650;48.882;2.092;2022-07-23T11:47:25;20.90;73.80
51559;DHT22;61650;48.882;2.092;2022-07-23T11:49:58;21.10;76.50
51559;DHT22;61650;48.882;2.092;2022-07-23T11:52:25;21.20;75.20
51559;DHT22;61650;48.882;2.092;2022-07-23T11:55:04;21.30;74.20
51559;DHT22;61650;48.882;2.092;2022-07-23T11:57:32;21.40;74.00
51559;DHT22;61650;48.882;2.092;2022-07-23T12:00:05;21.50;75.30
51559;DHT22;61650;48.882;2.092;2022-07-23T12:02:32;21.60;75.00
51559;DHT22;61650;48.882;2.092;2022-07-23T12:04:58;21.50;75.20
51559;DHT22;61650;48.882;2.092;2022-07-23T12:07:35;21.60;72.80
51559;DHT22;61650;48.882;2.092;2022-07-23T12:12:41;21.80;73.00
51559;DHT22;61650;48.882;2.092;2022-07-23T12:15:08;21.80;71.80
51559;DHT22;61650;48.882;2.092;2022-07-23T12:17:36;21.90;73.50
51559;DHT22;61650;48.882;2.092;2022-07-23T12:20:05;22.00;72.80
51559;DHT22;61650;48.882;2.092;2022-07-23T12:22:40;22.00;71.90
51559;DHT22;61650;48.882;2.092;2022-07-23T12:25:18;22.00;73.50
51559;DHT22;61650;48.882;2.092;2022-07-23T12:27:45;22.10;73.60
51559;DHT22;61650;48.882;2.092;2022-07-23T12:30:25;22.40;73.40
51559;DHT22;61650;48.882;2.092;2022-07-23T12:32:54;22.60;71.60
51559;DHT22;61650;48.882;2.092;2022-07-23T12:35:21;22.40;72.00
51559;DHT22;61650;48.882;2.092;2022-07-23T12:37:50;23.10;70.00
51559;DHT22;61650;48.882;2.092;2022-07-23T12:40:42;23.50;69.50
51559;DHT22;61650;48.882;2.092;2022-07-23T12:43:11;23.30;67.70
51559;DHT22;61650;48.882;2.092;2022-07-23T12:48:24;24.80;66.30
51559;DHT22;61650;48.882;2.092;2022-07-23T12:50:56;25.70;65.40
51559;DHT22;61650;48.882;2.092;2022-07-23T13:01:26;23.70;67.80
51559;DHT22;61650;48.882;2.092;2022-07-23T13:06:29;25.00;64.00
51559;DHT22;61650;48.882;2.092;2022-07-23T13:08:55;24.50;64.60
51559;DHT22;61650;48.882;2.092;2022-07-23T13:11:21;24.10;66.20
51559;DHT22;61650;48.882;2.092;2022-07-23T13:13:46;24.40;62.30
51559;DHT22;61650;48.882;2.092;2022-07-23T13:16:12;24.80;62.90
51559;DHT22;61650;48.882;2.092;2022-07-23T13:18:37;24.70;63.70
51559;DHT22;61650;48.882;2.092;2022-07-23T13:21:03;25.40;62.50
51559;DHT22;61650;48.882;2.092;2022-07-23T13:23:29;25.30;56.60
51559;DHT22;61650;48.882;2.092;2022-07-23T13:25:55;25.10;60.10
51559;DHT22;61650;48.882;2.092;2022-07-23T13:28:22;25.10;60.80
51559;DHT22;61650;48.882;2.092;2022-07-23T13:30:49;24.90;59.20
51559;DHT22;61650;48.882;2.092;2022-07-23T13:33:20;25.60;58.80
51559;DHT22;61650;48.882;2.092;2022-07-23T13:35:46;25.80;59.20
51559;DHT22;61650;48.882;2.092;2022-07-23T13:38:12;26.50;58.10
51559;DHT22;61650;48.882;2.092;2022-07-23T13:40:40;26.40;58.30
51559;DHT22;61650;48.882;2.092;2022-07-23T13:43:08;26.20;58.80
51559;DHT22;61650;48.882;2.092;2022-07-23T13:45:34;26.20;58.90
51559;DHT22;61650;48.882;2.092;2022-07-23T13:48:00;26.00;57.80
51559;DHT22;61650;48.882;2.092;2022-07-23T13:50:26;25.80;57.00
51559;DHT22;61650;48.882;2.092;2022-07-23T13:52:52;26.00;56.20
51559;DHT22;61650;48.882;2.092;2022-07-23T13:55:17;25.80;56.10
51559;DHT22;61650;48.882;2.092;2022-07-23T13:57:43;26.00;57.30
51559;DHT22;61650;48.882;2.092;2022-07-23T14:00:10;25.80;58.50
51559;DHT22;61650;48.882;2.092;2022-07-23T14:02:38;25.70;58.40
51559;DHT22;61650;48.882;2.092;2022-07-23T14:05:09;25.80;54.10
51559;DHT22;61650;48.882;2.092;2022-07-23T14:07:36;25.40;55.90
51559;DHT22;61650;48.882;2.092;2022-07-23T14:10:04;25.40;57.60
51559;DHT22;61650;48.882;2.092;2022-07-23T14:12:30;25.40;57.50
51559;DHT22;61650;48.882;2.092;2022-07-23T14:14:56;25.60;57.20
51559;DHT22;61650;48.882;2.092;2022-07-23T14:17:21;25.80;55.00
51559;DHT22;61650;48.882;2.092;2022-07-23T14:19:47;25.90;53.70
51559;DHT22;61650;48.882;2.092;2022-07-23T14:22:13;25.80;53.60
51559;DHT22;61650;48.882;2.092;2022-07-23T14:24:39;25.60;52.90
51559;DHT22;61650;48.882;2.092;2022-07-23T14:27:04;25.70;55.50
51559;DHT22;61650;48.882;2.092;2022-07-23T14:29:30;25.90;55.20
51559;DHT22;61650;48.882;2.092;2022-07-23T14:31:57;25.90;51.60
51559;DHT22;61650;48.882;2.092;2022-07-23T14:34:23;25.70;52.30
51559;DHT22;61650;48.882;2.092;2022-07-23T14:36:49;25.60;54.20
51559;DHT22;61650;48.882;2.092;2022-07-23T14:39:14;25.80;53.20
51559;DHT22;61650;48.882;2.092;2022-07-23T14:41:40;25.90;52.10
51559;DHT22;61650;48.882;2.092;2022-07-23T14:44:06;25.90;51.90
51559;DHT22;61650;48.882;2.092;2022-07-23T14:46:31;25.80;51.70
51559;DHT22;61650;48.882;2.092;2022-07-23T14:48:57;25.80;54.20
51559;DHT22;61650;48.882;2.092;2022-07-23T14:51:23;25.80;54.60
51559;DHT22;61650;48.882;2.092;2022-07-23T14:53:48;25.80;54.80
51559;DHT22;61650;48.882;2.092;2022-07-23T14:56:14;25.70;55.00
51559;DHT22;61650;48.882;2.092;2022-07-23T14:58:40;25.70;55.10
51559;DHT22;61650;48.882;2.092;2022-07-23T15:01:06;25.80;53.80
51559;DHT22;61650;48.882;2.092;2022-07-23T15:03:32;25.80;53.70
51559;DHT22;61650;48.882;2.092;2022-07-23T15:05:58;25.70;54.00
51559;DHT22;61650;48.882;2.092;2022-07-23T15:08:24;25.70;54.30
51559;DHT22;61650;48.882;2.092;2022-07-23T15:10:50;25.80;52.50
51559;DHT22;61650;48.882;2.092;2022-07-23T15:13:16;25.90;53.10
51559;DHT22;61650;48.882;2.092;2022-07-23T15:15:42;25.80;52.80
51559;DHT22;61650;48.882;2.092;2022-07-23T15:18:07;25.80;52.50
51559;DHT22;61650;48.882;2.092;2022-07-23T15:20:33;25.90;52.60
51559;DHT22;61650;48.882;2.092;2022-07-23T15:22:59;25.90;52.80
51559;DHT22;61650;48.882;2.092;2022-07-23T15:25:24;25.90;49.60
51559;DHT22;61650;48.882;2.092;2022-07-23T15:27:50;25.80;51.40
51559;DHT22;61650;48.882;2.092;2022-07-23T15:30:16;25.90;50.10
51559;DHT22;61650;48.882;2.092;2022-07-23T15:32:41;25.90;52.00
51559;DHT22;61650;48.882;2.092;2022-07-23T15:35:07;26.00;50.70
51559;DHT22;61650;48.882;2.092;2022-07-23T15:37:34;26.00;51.00
51559;DHT22;61650;48.882;2.092;2022-07-23T15:40:01;26.10;51.90
51559;DHT22;61650;48.882;2.092;2022-07-23T15:42:28;26.10;50.20
51559;DHT22;61650;48.882;2.092;2022-07-23T15:44:54;26.10;51.20
51559;DHT22;61650;48.882;2.092;2022-07-23T15:47:20;25.90;51.70
51559;DHT22;61650;48.882;2.092;2022-07-23T15:49:47;26.10;51.40
51559;DHT22;61650;48.882;2.092;2022-07-23T15:52:12;26.10;51.40
51559;DHT22;61650;48.882;2.092;2022-07-23T15:54:39;26.00;50.60
51559;DHT22;61650;48.882;2.092;2022-07-23T15:57:05;26.00;50.50
51559;DHT22;61650;48.882;2.092;2022-07-23T15:59:31;26.00;49.10
51559;DHT22;61650;48.882;2.092;2022-07-23T16:01:57;26.00;49.00
51559;DHT22;61650;48.882;2.092;2022-07-23T16:04:24;26.00;49.50
51559;DHT22;61650;48.882;2.092;2022-07-23T16:06:50;26.10;48.70
51559;DHT22;61650;48.882;2.092;2022-07-23T16:09:16;26.10;49.80
51559;DHT22;61650;48.882;2.092;2022-07-23T16:11:41;25.90;49.90
51559;DHT22;61650;48.882;2.092;2022-07-23T16:14:07;25.80;50.60
51559;DHT22;61650;48.882;2.092;2022-07-23T16:16:34;25.80;48.50
51559;DHT22;61650;48.882;2.092;2022-07-23T16:19:00;25.90;48.70
51559;DHT22;61650;48.882;2.092;2022-07-23T16:21:26;25.90;50.40
51559;DHT22;61650;48.882;2.092;2022-07-23T16:23:52;25.80;50.30